sensor_id;sensor_type;location;lat;lon;timestamp;pressure;altitude;pressure_sealevel;temperature;humidity
25759;BME280;13604;52.496;13.456;2022-09-01T00:01:56;102000.28;;;15.27;90.50
25759;BME280;13604;52.496;13.456;2022-09-01T00:04:23;102010.97;;;15.24;90.53
25759;BME280;13604;52.496;13.456;2022-09-01T00:06:53;102003.75;;;15.28;90.48
25759;BME280;13604;52.496;13.456;2022-09-01T00:09:20;102005.16;;;15.19;90.37
25759;BME280;13604;52.496;13.456;2022-09-01T00:11:49;102007.69;;;15.21;90.73
25759;BME280;13604;52.496;13.456;2022-09-01T00:14:15;102003.56;;;15.17;90.91
25759;BME280;13604;52.496;13.456;2022-09-01T00:16:41;101996.72;;;15.14;89.96
25759;BME280;13604;52.496;13.456;2022-09-01T00:19:06;102009.56;;;15.19;89.32
25759;BME280;13604;52.496;13.456;2022-09-01T00:21:35;102007.97;;;15.16;89.85
25759;BME280;13604;52.496;13.456;2022-09-01T00:24:01;101997.13;;;15.22;88.13
25759;BME280;13604;52.496;13.456;2022-09-01T00:26:27;102012.38;;;15.16;88.93
25759;BME280;13604;52.496;13.456;2022-09-01T00:28:53;102003.09;;;15.10;89.42
25759;BME280;13604;52.496;13.456;2022-09-01T00:31:19;102009.94;;;15.13;89.29
25759;BME280;13604;52.496;13.456;2022-09-01T00:33:45;101995.22;;;15.10;88.23
25759;BME280;13604;52.496;13.456;2022-09-01T00:36:11;101998.78;;;15.09;88.06
25759;BME280;13604;52.496;13.456;2022-09-01T00:38:36;101994.38;;;15.10;87.81
25759;BME280;13604;52.496;13.456;2022-09-01T00:41:02;102008.34;;;15.10;87.66
25759;BME280;13604;52.496;13.456;2022-09-01T00:43:52;101999.53;;;15.11;88.28
25759;BME280;13604;52.496;13.456;2022-09-01T00:46:28;101994.38;;;15.10;88.47
25759;BME280;13604;52.496;13.456;2022-09-01T00:49:04;101994.38;;;15.10;88.82
25759;BME280;13604;52.496;13.456;2022-09-01T00:51:32;101997.09;;;15.08;88.96
25759;BME280;13604;52.496;13.456;2022-09-01T00:53:58;101990.25;;;15.06;88.44
25759;BME280;13604;52.496;13.456;2022-09-01T00:56:24;101997.09;;;15.08;88.48
25759;BME280;13604;52.496;13.456;2022-09-01T00:58:51;101999.53;;;15.11;88.40
25759;BME280;13604;52.496;13.456;2022-09-01T01:01:17;101995.16;;;15.12;88.76
25759;BME280;13604;52.496;13.456;2022-09-01T01:03:43;101988.75;;;15.02;88.83
25759;BME280;13604;52.496;13.456;2022-09-01T01:06:12;101996.44;;;15.05;89.62
25759;BME280;13604;52.496;13.456;2022-09-01T01:08:41;101992.22;;;15.02;90.87
25759;BME280;13604;52.496;13.456;2022-09-01T01:11:12;101988.19;;;14.97;91.45
25759;BME280;13604;52.496;13.456;2022-09-01T01:13:57;101993.69;;;14.92;91.35
25759;BME280;13604;52.496;13.456;2022-09-01T01:16:25;101991.91;;;14.92;90.79
25759;BME280;13604;52.496;13.456;2022-09-01T01:18:51;101992.28;;;14.86;92.05
25759;BME280;13604;52.496;13.456;2022-09-01T01:21:20;101991.44;;;14.86;92.28
25759;BME280;13604;52.496;13.456;2022-09-01T01:24:28;101989.84;;;14.83;92.64
25759;BME280;13604;52.496;13.456;2022-09-01T01:26:56;101999.69;;;14.80;93.05
25759;BME280;13604;52.496;13.456;2022-09-01T01:29:24;101992.75;;;14.79;93.30
25759;BME280;13604;52.496;13.456;2022-09-01T01:31:49;101993.84;;;14.75;94.83
25759;BME280;13604;52.496;13.456;2022-09-01T01:34:17;101992.16;;;14.74;94.56
25759;BME280;13604;52.496;13.456;2022-09-01T01:36:44;101999.09;;;14.75;94.82
25759;BME280;13604;52.496;13.456;2022-09-01T01:39:14;101994.22;;;14.69;95.41
25759;BME280;13604;52.496;13.456;2022-09-01T01:41:41;101998.50;;;14.70;95.63
25759;BME280;13604;52.496;13.456;2022-09-01T01:44:12;101992.63;;;14.66;96.82
25759;BME280;13604;52.496;13.456;2022-09-01T01:46:41;101999.81;;;14.63;97.72
25759;BME280;13604;52.496;13.456;2022-09-01T01:49:09;101986.88;;;14.60;98.51
25759;BME280;13604;52.496;13.456;2022-09-01T01:51:37;101988.06;;;14.54;98.86
25759;BME280;13604;52.496;13.456;2022-09-01T01:54:02;101982.16;;;14.50;99.52
25759;BME280;13604;52.496;13.456;2022-09-01T01:56:31;101986.63;;;14.48;100.00
25759;BME280;13604;52.496;13.456;2022-09-01T01:58:57;101980.75;;;14.45;100.00
25759;BME280;13604;52.496;13.456;2022-09-01T02:01:25;101974.06;;;14.39;100.00
25759;BME280;13604;52.496;13.456;2022-09-01T02:03:53;101987.00;;;14.42;100.00
25759;BME280;13604;52.496;13.456;2022-09-01T02:06:21;101994.16;;;14.39;100.00
25759;BME280;13604;52.496;13.456;2022-09-01T02:08:48;101985.97;;;14.29;100.00
25759;BME280;13604;52.496;13.456;2022-09-01T02:11:13;101984.22;;;14.30;100.00
25759;BME280;13604;52.496;13.456;2022-09-01T02:13:41;101984.28;;;14.28;100.00
25759;BME280;13604;52.496;13.456;2022-09-01T02:16:08;101989.53;;;14.28;100.00
25759;BME280;13604;52.496;13.456;2022-09-01T02:18:42;101990.38;;;14.29;100.00
25759;BME280;13604;52.496;13.456;2022-09-01T02:21:13;101992.81;;;14.32;100.00
25759;BME280;13604;52.496;13.456;2022-09-01T02:23:39;101992.91;;;14.30;100.00
25759;BME280;13604;52.496;13.456;2022-09-01T02:26:07;101975.56;;;14.28;100.00
25759;BME280;13604;52.496;13.456;2022-09-01T02:28:37;101985.50;;;14.23;100.00
25759;BME280;13604;52.496;13.456;2022-09-01T02:31:07;101986.41;;;14.21;100.00
25759;BME280;13604;52.496;13.456;2022-09-01T02:33:33;101982.44;;;14.14;100.00
25759;BME280;13604;52.496;13.456;2022-09-01T02:36:03;101982.44;;;14.14;100.00
25759;BME280;13604;52.496;13.456;2022-09-01T02:38:28;101985.50;;;14.07;100.00
25759;BME280;13604;52.496;13.456;2022-09-01T02:40:56;101983.97;;;14.03;100.00
25759;BME280;13604;52.496;13.456;2022-09-01T02:43:23;101983.03;;;14.04;100.00
25759;BME280;13604;52.496;13.456;2022-09-01T02:45:53;101979.00;;;13.98;100.00
25759;BME280;13604;52.496;13.456;2022-09-01T02:48:24;101980.09;;;13.94;100.00
25759;BME280;13604;52.496;13.456;2022-09-01T02:50:51;101979.59;;;13.88;100.00
25759;BME280;13604;52.496;13.456;2022-09-01T02:53:16;101977.41;;;13.80;100.00
25759;BME280;13604;52.496;13.456;2022-09-01T02:55:42;101975.28;;;13.71;100.00
25759;BME280;13604;52.496;13.456;2022-09-01T02:58:09;101986.94;;;13.65;100.00
25759;BME280;13604;52.496;13.456;2022-09-01T03:00:41;101983.97;;;13.56;100.00
25759;BME280;13604;52.496;13.456;2022-09-01T03:03:08;101983.78;;;13.43;100.00
25759;BME280;13604;52.496;13.456;2022-09-01T03:05:34;101981.13;;;13.27;100.00
25759;BME280;13604;52.496;13.456;2022-09-01T03:08:06;101982.81;;;13.28;100.00
25759;BME280;13604;52.496;13.456;2022-09-01T03:10:37;101971.91;;;13.20;100.00
25759;BME280;13604;52.496;13.456;2022-09-01T03:13:09;101981.53;;;13.20;100.00
25759;BME280;13604;52.496;13.456;2022-09-01T03:15:36;101984.38;;;13.15;100.00
25759;BME280;13604;52.496;13.456;2022-09-01T03:18:03;101976.91;;;13.07;100.00
25759;BME280;13604;52.496;13.456;2022-09-01T03:20:31;101974.84;;;13.14;100.00
25759;BME280;13604;52.496;13.456;2022-09-01T03:23:02;101977.97;;;13.03;100.00
25759;BME280;13604;52.496;13.456;2022-09-01T03:25:29;101980.06;;;12.97;100.00
25759;BME280;13604;52.496;13.456;2022-09-01T03:27:56;101974.31;;;12.90;100.00
25759;BME280;13604;52.496;13.456;2022-09-01T03:30:23;101971.84;;;12.87;100.00
25759;BME280;13604;52.496;13.456;2022-09-01T03:32:48;101978.91;;;12.85;100.00
25759;BME280;13604;52.496;13.456;2022-09-01T03:35:14;101961.31;;;12.71;100.00
25759;BME280;13604;52.496;13.456;2022-09-01T03:37:40;101974.22;;;12.74;100.00
25759;BME280;13604;52.496;13.456;2022-09-01T03:40:09;101975.31;;;12.70;100.00
25759;BME280;13604;52.496;13.456;2022-09-01T03:42:35;101975.56;;;12.66;100.00
25759;BME280;13604;52.496;13.456;2022-09-01T03:45:03;101980.84;;;12.64;100.00
25759;BME280;13604;52.496;13.456;2022-09-01T03:47:37;101976.63;;;12.62;100.00
25759;BME280;13604;52.496;13.456;2022-09-01T03:50:06;101975.09;;;12.58;100.00
25759;BME280;13604;52.496;13.456;2022-09-01T03:52:32;101977.78;;;12.56;100.00
25759;BME280;13604;52.496;13.456;2022-09-01T03:54:58;101974.31;;;12.56;100.00
25759;BME280;13604;52.496;13.456;2022-09-01T03:57:23;101965.91;;;12.49;100.00
25759;BME280;13604;52.496;13.456;2022-09-01T03:59:50;101971.06;;;12.51;100.00
25759;BME280;13604;52.496;13.456;2022-09-01T04:02:18;101968.78;;;12.45;100.00
25759;BME280;13604;52.496;13.456;2022-09-01T04:04:44;101965.38;;;12.43;100.00
25759;BME280;13604;52.496;13.456;2022-09-01T04:07:09;101967.53;;;12.52;100.00
25759;BME280;13604;52.496;13.456;2022-09-01T04:09:35;101963.00;;;12.38;100.00
25759;BME280;13604;52.496;13.456;2022-09-01T04:12:03;101964.00;;;12.35;100.00
25759;BME280;13604;52.496;13.456;2022-09-01T04:14:33;101973.63;;;12.35;100.00
25759;BME280;13604;52.496;13.456;2022-09-01T04:16:58;101971.00;;;12.35;100.00
25759;BME280;13604;52.496;13.456;2022-09-01T04:19:42;101969.53;;;12.29;100.00
25759;BME280;13604;52.496;13.456;2022-09-01T04:22:07;101969.66;;;12.26;100.00
25759;BME280;13604;52.496;13.456;2022-09-01T04:24:38;101977.50;;;12.26;100.00
25759;BME280;13604;52.496;13.456;2022-09-01T04:27:06;101964.53;;;12.25;100.00
25759;BME280;13604;52.496;13.456;2022-09-01T04:29:33;101964.69;;;12.22;100.00
25759;BME280;13604;52.496;13.456;2022-09-01T04:32:01;101968.19;;;12.21;100.00
25759;BME280;13604;52.496;13.456;2022-09-01T04:34:28;101974.34;;;12.20;100.00
25759;BME280;13604;52.496;13.456;2022-09-01T04:36:54;101974.22;;;12.23;100.00
25759;BME280;13604;52.496;13.456;2022-09-01T04:39:22;101974.97;;;12.25;100.00
25759;BME280;13604;52.496;13.456;2022-09-01T04:41:47;101974.13;;;12.24;100.00
25759;BME280;13604;52.496;13.456;2022-09-01T04:44:15;101969.91;;;12.22;100.00
25759;BME280;13604;52.496;13.456;2022-09-01T04:46:43;101979.44;;;12.23;100.00
25759;BME280;13604;52.496;13.456;2022-09-01T04:49:13;101975.91;;;12.24;100.00
25759;BME280;13604;52.496;13.456;2022-09-01T04:51:46;101983.69;;;12.43;100.00
25759;BME280;13604;52.496;13.456;2022-09-01T04:54:12;101986.94;;;12.48;100.00
25759;BME280;13604;52.496;13.456;2022-09-01T04:56:39;101985.53;;;12.58;100.00
25759;BME280;13604;52.496;13.456;2022-09-01T04:59:06;101980.31;;;12.58;100.00
25759;BME280;13604;52.496;13.456;2022-09-01T05:01:34;101989.53;;;12.65;100.00
25759;BME280;13604;52.496;13.456;2022-09-01T05:04:11;101983.69;;;12.60;100.00
25759;BME280;13604;52.496;13.456;2022-09-01T05:06:39;101979.56;;;12.56;100.00
25759;BME280;13604;52.496;13.456;2022-09-01T05:09:05;101982.75;;;12.61;100.00
25759;BME280;13604;52.496;13.456;2022-09-01T05:11:34;101981.91;;;12.60;100.00
25759;BME280;13604;52.496;13.456;2022-09-01T05:14:01;101978.16;;;12.66;100.00
25759;BME280;13604;52.496;13.456;2022-09-01T05:16:28;101982.91;;;12.75;100.00
25759;BME280;13604;52.496;13.456;2022-09-01T05:18:54;101978.22;;;12.82;100.00
25759;BME280;13604;52.496;13.456;2022-09-01T05:21:22;101979.84;;;12.84;100.00
25759;BME280;13604;52.496;13.456;2022-09-01T05:23:50;101974.69;;;12.83;100.00
25759;BME280;13604;52.496;13.456;2022-09-01T05:26:25;101977.84;;;12.89;100.00
25759;BME280;13604;52.496;13.456;2022-09-01T05:28:53;101984.44;;;12.96;100.00
25759;BME280;13604;52.496;13.456;2022-09-01T05:31:20;101972.00;;;13.01;100.00
25759;BME280;13604;52.496;13.456;2022-09-01T05:33:48;101975.34;;;13.03;100.00
25759;BME280;13604;52.496;13.456;2022-09-01T05:36:17;101980.59;;;13.21;100.00
25759;BME280;13604;52.496;13.456;2022-09-01T05:38:44;101982.03;;;13.26;100.00
25759;BME280;13604;52.496;13.456;2022-09-01T05:41:13;101987.88;;;13.31;100.00
25759;BME280;13604;52.496;13.456;2022-09-01T05:43:44;101991.19;;;13.35;100.00
25759;BME280;13604;52.496;13.456;2022-09-01T05:46:10;101996.16;;;13.39;100.00
25759;BME280;13604;52.496;13.456;2022-09-01T05:48:35;101994.09;;;13.46;100.00
25759;BME280;13604;52.496;13.456;2022-09-01T05:51:05;101993.66;;;13.54;100.00
25759;BME280;13604;52.496;13.456;2022-09-01T05:53:31;101989.72;;;13.62;100.00
25759;BME280;13604;52.496;13.456;2022-09-01T05:55:59;101993.25;;;13.61;100.00
25759;BME280;13604;52.496;13.456;2022-09-01T05:58:26;101986.16;;;13.63;100.00
25759;BME280;13604;52.496;13.456;2022-09-01T06:00:53;101988.34;;;13.71;100.00
25759;BME280;13604;52.496;13.456;2022-09-01T06:03:21;101991.91;;;13.70;100.00
25759;BME280;13604;52.496;13.456;2022-09-01T06:05:47;101990.38;;;13.81;100.00
25759;BME280;13604;52.496;13.456;2022-09-01T06:08:18;101988.03;;;13.93;100.00
25759;BME280;13604;52.496;13.456;2022-09-01T06:10:44;101991.16;;;13.99;100.00
25759;BME280;13604;52.496;13.456;2022-09-01T06:13:10;101992.44;;;14.08;100.00
25759;BME280;13604;52.496;13.456;2022-09-01T06:15:38;101986.03;;;14.13;100.00
25759;BME280;13604;52.496;13.456;2022-09-01T06:18:05;101994.13;;;14.25;100.00
25759;BME280;13604;52.496;13.456;2022-09-01T06:20:32;101996.13;;;14.35;100.00
25759;BME280;13604;52.496;13.456;2022-09-01T06:22:58;101987.75;;;14.29;100.00
25759;BME280;13604;52.496;13.456;2022-09-01T06:25:23;101998.56;;;14.38;100.00
25759;BME280;13604;52.496;13.456;2022-09-01T06:27:50;101993.94;;;14.43;100.00
25759;BME280;13604;52.496;13.456;2022-09-01T06:30:17;101996.09;;;14.51;100.00
25759;BME280;13604;52.496;13.456;2022-09-01T06:32:47;101999.03;;;14.61;100.00
25759;BME280;13604;52.496;13.456;2022-09-01T06:35:14;101997.78;;;14.68;100.00
25759;BME280;13604;52.496;13.456;2022-09-01T06:37:41;101992.25;;;14.72;100.00
25759;BME280;13604;52.496;13.456;2022-09-01T06:40:11;101994.31;;;14.81;100.00
25759;BME280;13604;52.496;13.456;2022-09-01T06:42:43;101999.91;;;14.91;100.00
25759;BME280;13604;52.496;13.456;2022-09-01T06:45:10;101996.72;;;15.00;100.00
25759;BME280;13604;52.496;13.456;2022-09-01T06:47:35;101999.63;;;15.10;100.00
25759;BME280;13604;52.496;13.456;2022-09-01T06:50:01;102013.03;;;15.19;100.00
25759;BME280;13604;52.496;13.456;2022-09-01T06:52:26;102009.75;;;15.30;100.00
25759;BME280;13604;52.496;13.456;2022-09-01T06:54:52;102006.94;;;15.47;100.00
25759;BME280;13604;52.496;13.456;2022-09-01T06:57:19;102014.75;;;15.63;100.00
25759;BME280;13604;52.496;13.456;2022-09-01T06:59:46;102003.50;;;15.75;100.00
25759;BME280;13604;52.496;13.456;2022-09-01T07:02:12;102001.69;;;15.90;100.00
25759;BME280;13604;52.496;13.456;2022-09-01T07:04:41;102004.09;;;16.07;99.36
25759;BME280;13604;52.496;13.456;2022-09-01T07:07:08;102006.44;;;16.24;98.18
25759;BME280;13604;52.496;13.456;2022-09-01T07:09:34;102003.78;;;16.38;96.73
25759;BME280;13604;52.496;13.456;2022-09-01T07:11:59;102009.50;;;16.58;94.11
25759;BME280;13604;52.496;13.456;2022-09-01T07:14:25;102010.25;;;16.60;92.20
25759;BME280;13604;52.496;13.456;2022-09-01T07:16:50;102008.97;;;16.67;90.39
25759;BME280;13604;52.496;13.456;2022-09-01T07:19:15;102012.44;;;16.93;90.21
25759;BME280;13604;52.496;13.456;2022-09-01T07:21:42;102017.44;;;17.10;88.00
25759;BME280;13604;52.496;13.456;2022-09-01T07:24:09;102011.72;;;17.41;86.50
25759;BME280;13604;52.496;13.456;2022-09-01T07:26:36;102013.53;;;17.66;84.56
25759;BME280;13604;52.496;13.456;2022-09-01T07:29:05;102010.13;;;17.77;82.35
25759;BME280;13604;52.496;13.456;2022-09-01T07:31:36;102012.91;;;17.99;81.95
25759;BME280;13604;52.496;13.456;2022-09-01T07:34:06;102009.88;;;18.16;79.55
25759;BME280;13604;52.496;13.456;2022-09-01T07:36:41;102001.34;;;18.37;80.11
25759;BME280;13604;52.496;13.456;2022-09-01T07:39:07;102008.75;;;18.55;79.31
25759;BME280;13604;52.496;13.456;2022-09-01T07:41:33;102010.19;;;18.83;76.58
25759;BME280;13604;52.496;13.456;2022-09-01T07:44:00;102022.09;;;19.00;76.43
25759;BME280;13604;52.496;13.456;2022-09-01T07:46:28;102016.81;;;19.00;74.08
25759;BME280;13604;52.496;13.456;2022-09-01T07:48:56;102012.91;;;19.17;72.01
25759;BME280;13604;52.496;13.456;2022-09-01T07:51:23;102010.81;;;18.87;71.95
25759;BME280;13604;52.496;13.456;2022-09-01T07:53:49;102017.34;;;19.16;71.45
25759;BME280;13604;52.496;13.456;2022-09-01T07:56:18;102017.59;;;19.36;70.11
25759;BME280;13604;52.496;13.456;2022-09-01T07:58:46;102014.59;;;19.29;70.07
25759;BME280;13604;52.496;13.456;2022-09-01T08:01:14;102020.03;;;19.61;69.36
25759;BME280;13604;52.496;13.456;2022-09-01T08:03:43;102021.16;;;20.02;65.96
25759;BME280;13604;52.496;13.456;2022-09-01T08:06:11;102023.13;;;20.43;65.17
25759;BME280;13604;52.496;13.456;2022-09-01T08:08:38;102024.25;;;20.61;64.05
25759;BME280;13604;52.496;13.456;2022-09-01T08:11:04;102020.75;;;21.02;61.40
25759;BME280;13604;52.496;13.456;2022-09-01T08:13:33;102019.22;;;21.41;59.82
25759;BME280;13604;52.496;13.456;2022-09-01T08:16:03;102024.75;;;21.68;58.86
25759;BME280;13604;52.496;13.456;2022-09-01T08:18:28;102017.75;;;22.07;56.26
25759;BME280;13604;52.496;13.456;2022-09-01T08:20:53;102020.69;;;22.14;55.63
25759;BME280;13604;52.496;13.456;2022-09-01T08:23:19;102016.25;;;22.63;54.57
25759;BME280;13604;52.496;13.456;2022-09-01T08:25:46;102012.59;;;22.54;53.92
25759;BME280;13604;52.496;13.456;2022-09-01T08:28:12;102017.03;;;23.02;52.81
25759;BME280;13604;52.496;13.456;2022-09-01T08:30:40;102018.81;;;23.20;50.54
25759;BME280;13604;52.496;13.456;2022-09-01T08:33:06;102019.00;;;23.46;49.83
25759;BME280;13604;52.496;13.456;2022-09-01T08:35:37;102017.41;;;23.90;48.73
25759;BME280;13604;52.496;13.456;2022-09-01T08:38:03;102015.44;;;24.63;46.95
25759;BME280;13604;52.496;13.456;2022-09-01T08:40:28;102014.59;;;25.32;44.62
25759;BME280;13604;52.496;13.456;2022-09-01T08:43:26;102017.28;;;25.66;43.41
25759;BME280;13604;52.496;13.456;2022-09-01T08:45:58;102005.91;;;26.06;41.95
25759;BME280;13604;52.496;13.456;2022-09-01T08:48:38;102020.56;;;25.94;41.08
25759;BME280;13604;52.496;13.456;2022-09-01T08:54:22;102007.81;;;26.55;38.24
25759;BME280;13604;52.496;13.456;2022-09-01T08:57:17;102009.47;;;26.31;38.73
25759;BME280;13604;52.496;13.456;2022-09-01T08:59:39;102001.81;;;26.61;38.11
25759;BME280;13604;52.496;13.456;2022-09-01T09:02:19;102005.34;;;27.33;37.51
25759;BME280;13604;52.496;13.456;2022-09-01T09:05:05;102005.03;;;27.75;35.19
25759;BME280;13604;52.496;13.456;2022-09-01T09:12:58;102004.66;;;28.09;32.54
25759;BME280;13604;52.496;13.456;2022-09-01T09:15:39;102000.44;;;29.12;32.85
25759;BME280;13604;52.496;13.456;2022-09-01T09:18:19;101994.50;;;29.97;31.35
25759;BME280;13604;52.496;13.456;2022-09-01T09:20:48;101993.31;;;30.21;30.78
25759;BME280;13604;52.496;13.456;2022-09-01T09:23:28;102001.03;;;29.73;31.12
25759;BME280;13604;52.496;13.456;2022-09-01T09:25:55;101992.06;;;29.81;31.27
25759;BME280;13604;52.496;13.456;2022-09-01T09:28:21;101996.38;;;29.96;30.55
25759;BME280;13604;52.496;13.456;2022-09-01T09:30:46;101991.19;;;30.16;29.95
25759;BME280;13604;52.496;13.456;2022-09-01T09:33:33;101992.59;;;30.55;30.69
25759;BME280;13604;52.496;13.456;2022-09-01T09:36:17;101990.97;;;29.60;31.38
25759;BME280;13604;52.496;13.456;2022-09-01T09:38:43;101987.28;;;30.40;29.86
25759;BME280;13604;52.496;13.456;2022-09-01T09:41:19;101980.28;;;29.46;30.81
25759;BME280;13604;52.496;13.456;2022-09-01T09:43:56;101989.53;;;27.62;33.75
25759;BME280;13604;52.496;13.456;2022-09-01T09:49:27;101988.56;;;27.55;34.94
25759;BME280;13604;52.496;13.456;2022-09-01T09:52:17;101981.09;;;26.55;36.02
25759;BME280;13604;52.496;13.456;2022-09-01T09:55:17;101997.03;;;25.56;37.23
25759;BME280;13604;52.496;13.456;2022-09-01T09:57:43;101988.63;;;25.34;37.59
25759;BME280;13604;52.496;13.456;2022-09-01T10:02:44;101984.41;;;24.98;39.03
25759;BME280;13604;52.496;13.456;2022-09-01T10:05:37;101979.56;;;24.32;39.80
25759;BME280;13604;52.496;13.456;2022-09-01T10:08:08;101991.75;;;23.72;40.97
25759;BME280;13604;52.496;13.456;2022-09-01T10:10:41;101981.38;;;23.51;42.77
25759;BME280;13604;52.496;13.456;2022-09-01T10:13:10;101987.22;;;24.71;40.37
25759;BME280;13604;52.496;13.456;2022-09-01T10:15:37;101979.91;;;24.73;39.96
25759;BME280;13604;52.496;13.456;2022-09-01T10:18:14;101979.34;;;25.13;40.07
25759;BME280;13604;52.496;13.456;2022-09-01T10:20:48;101977.44;;;25.65;38.52
25759;BME280;13604;52.496;13.456;2022-09-01T10:23:17;101980.66;;;25.09;38.32
25759;BME280;13604;52.496;13.456;2022-09-01T10:25:42;101974.56;;;26.33;36.99
25759;BME280;13604;52.496;13.456;2022-09-01T10:28:17;101972.22;;;28.49;32.74
25759;BME280;13604;52.496;13.456;2022-09-01T10:30:45;101978.59;;;28.48;30.71
25759;BME280;13604;52.496;13.456;2022-09-01T10:33:13;101973.56;;;28.68;31.53
25759;BME280;13604;52.496;13.456;2022-09-01T10:35:42;101973.88;;;29.32;30.44
25759;BME280;13604;52.496;13.456;2022-09-01T10:38:14;101973.00;;;31.23;27.52
25759;BME280;13604;52.496;13.456;2022-09-01T10:40:42;101966.22;;;32.08;25.22
25759;BME280;13604;52.496;13.456;2022-09-01T10:43:37;101960.97;;;31.19;26.57
25759;BME280;13604;52.496;13.456;2022-09-01T10:48:34;101974.28;;;27.24;31.80
25759;BME280;13604;52.496;13.456;2022-09-01T10:53:50;101978.63;;;25.36;35.90
25759;BME280;13604;52.496;13.456;2022-09-01T10:56:39;101971.22;;;27.74;30.79
25759;BME280;13604;52.496;13.456;2022-09-01T11:07:05;101959.94;;;35.31;21.68
25759;BME280;13604;52.496;13.456;2022-09-01T11:10:14;101952.38;;;32.57;23.40
25759;BME280;13604;52.496;13.456;2022-09-01T11:15:39;101948.22;;;30.65;26.91
25759;BME280;13604;52.496;13.456;2022-09-01T11:18:23;101945.50;;;29.38;27.51
25759;BME280;13604;52.496;13.456;2022-09-01T11:20:50;101958.47;;;28.30;30.83
25759;BME280;13604;52.496;13.456;2022-09-01T11:23:27;101955.72;;;27.22;31.51
25759;BME280;13604;52.496;13.456;2022-09-01T11:26:01;101955.50;;;26.20;32.50
25759;BME280;13604;52.496;13.456;2022-09-01T11:31:01;101963.34;;;24.61;35.74
25759;BME280;13604;52.496;13.456;2022-09-01T11:33:49;101954.88;;;24.91;35.93
25759;BME280;13604;52.496;13.456;2022-09-01T11:38:54;101962.34;;;28.04;30.53
25759;BME280;13604;52.496;13.456;2022-09-01T11:41:40;101943.81;;;30.58;28.24
25759;BME280;13604;52.496;13.456;2022-09-01T11:44:14;101943.34;;;30.82;26.24
25759;BME280;13604;52.496;13.456;2022-09-01T11:46:41;101939.09;;;30.60;26.03
25759;BME280;13604;52.496;13.456;2022-09-01T11:49:25;101951.41;;;28.51;27.53
25759;BME280;13604;52.496;13.456;2022-09-01T11:51:52;101954.09;;;27.13;30.10
25759;BME280;13604;52.496;13.456;2022-09-01T11:54:18;101958.81;;;25.89;31.64
25759;BME280;13604;52.496;13.456;2022-09-01T11:56:44;101961.75;;;24.94;34.42
25759;BME280;13604;52.496;13.456;2022-09-01T11:59:09;101958.13;;;24.51;36.19
25759;BME280;13604;52.496;13.456;2022-09-01T12:01:37;101955.44;;;24.16;37.74
25759;BME280;13604;52.496;13.456;2022-09-01T12:04:22;101955.72;;;23.77;38.78
25759;BME280;13604;52.496;13.456;2022-09-01T12:06:53;101944.53;;;23.46;38.07
25759;BME280;13604;52.496;13.456;2022-09-01T12:09:19;101953.75;;;23.24;37.52
25759;BME280;13604;52.496;13.456;2022-09-01T12:11:44;101947.81;;;23.40;38.25
25759;BME280;13604;52.496;13.456;2022-09-01T12:14:10;101939.63;;;27.30;34.62
25759;BME280;13604;52.496;13.456;2022-09-01T12:16:39;101939.22;;;28.49;27.75
25759;BME280;13604;52.496;13.456;2022-09-01T12:19:06;101938.47;;;27.72;29.73
25759;BME280;13604;52.496;13.456;2022-09-01T12:21:37;101940.47;;;26.02;31.27
25759;BME280;13604;52.496;13.456;2022-09-01T12:24:16;101945.72;;;25.20;33.70
25759;BME280;13604;52.496;13.456;2022-09-01T12:26:43;101945.09;;;24.48;35.79
25759;BME280;13604;52.496;13.456;2022-09-01T12:29:10;101946.47;;;23.99;38.11
25759;BME280;13604;52.496;13.456;2022-09-01T12:31:40;101941.50;;;23.69;38.03
25759;BME280;13604;52.496;13.456;2022-09-01T12:39:32;101949.72;;;22.55;39.63
25759;BME280;13604;52.496;13.456;2022-09-01T12:44:51;101933.81;;;21.97;43.96
25759;BME280;13604;52.496;13.456;2022-09-01T12:50:03;101938.41;;;21.85;47.17
25759;BME280;13604;52.496;13.456;2022-09-01T12:52:29;101933.66;;;21.98;46.12
25759;BME280;13604;52.496;13.456;2022-09-01T12:57:32;101928.78;;;22.13;45.46
25759;BME280;13604;52.496;13.456;2022-09-01T13:00:13;101929.78;;;22.31;44.50
25759;BME280;13604;52.496;13.456;2022-09-01T13:02:42;101928.63;;;22.53;45.24
25759;BME280;13604;52.496;13.456;2022-09-01T13:05:40;101921.56;;;22.91;44.36
25759;BME280;13604;52.496;13.456;2022-09-01T13:08:09;101923.75;;;23.32;43.30
25759;BME280;13604;52.496;13.456;2022-09-01T13:10:37;101917.13;;;23.73;42.95
25759;BME280;13604;52.496;13.456;2022-09-01T13:13:05;101920.16;;;24.31;42.37
25759;BME280;13604;52.496;13.456;2022-09-01T13:15:31;101908.78;;;26.24;37.43
25759;BME280;13604;52.496;13.456;2022-09-01T13:17:57;101909.97;;;28.24;32.24
25759;BME280;13604;52.496;13.456;2022-09-01T13:20:22;101911.88;;;28.68;31.78
25759;BME280;13604;52.496;13.456;2022-09-01T13:22:48;101906.34;;;29.86;30.34
25759;BME280;13604;52.496;13.456;2022-09-01T13:25:15;101899.31;;;29.85;29.05
25759;BME280;13604;52.496;13.456;2022-09-01T13:27:42;101904.84;;;29.26;28.67
25759;BME280;13604;52.496;13.456;2022-09-01T13:30:09;101902.88;;;28.32;29.35
25759;BME280;13604;52.496;13.456;2022-09-01T13:32:35;101899.38;;;27.54;31.62
25759;BME280;13604;52.496;13.456;2022-09-01T13:35:01;101902.19;;;26.75;32.00
25759;BME280;13604;52.496;13.456;2022-09-01T13:37:26;101906.94;;;25.84;33.41